Hovedside
METAR-TAF:

METAR-TAF

Lufthavner :

Katowice, Polen

breddegrad: 50-28-27N, lengdegrad: 019-04-48E, høyde over havet: 284 m

Gjeldene værobservasjon

Denne rapporten ble laget for 36 minutter siden, klokken 20:00 UTC
Vind 2 kt fra Nordvest
Temperatur 16°C
Luftfuktighet 72%
Trykk 1017 hPa
Sikt 10 km eller mer
ingen skyer under 1500 m og ingen bygeskyer

METAR: EPKT 232000Z 31002KT CAVOK 16/11 Q1017

Tid: 22:36 (20:36 UTC)

Varsel

Denne rapporten ble laget for 3 timer og 6 minutter siden, klokken 17:30 UTC
Varsel gyldig fra 23. klokken 18 UTC til 24. klokken 18 UTC
Vind 10 kt fra Nordvest
Sikt 10 km eller mer
ingen skyer under 1500 m og ingen bygeskyer
Blir
fra 23. klokken 19 UTC til 23. klokken 21 UTC
Vind 2 kt fra skiftende retning
Blir
fra 24. klokken 06 UTC til 24. klokken 08 UTC
Vind 10 kt fra Nord

TAF: EPKT 231730Z 2318/2418 31010KT CAVOK BECMG 2319/2321 VRB02KT BECMG 2406/2408 35010KT

Værobservasjoner og værvarsel for over 4000 flyplasser (METAR- og TAF-rapporter).

Tilgjengelige stasjoner er representert av de røde og gule prikkene på kartet.

Hold musepekeren over prikken for å se navnet på stasjonen.

Klikk så for å se værobservasjoner og -varsler.

For å forandre kartet kan du klikke på den grønne knappen med svart kryss for å zoome inn, på den grønne knappen med strek for å zoome ut, eller på de grønne pilene for å se tilstøtende kart.


METAR-TAF: